createdAt,value
2023-03-26T00:02:06.033Z,38.95
2023-03-26T00:04:34.640Z,39.50
2023-03-26T00:07:03.102Z,39.34
2023-03-26T00:09:31.408Z,39.45
2023-03-26T00:11:59.498Z,39.19
2023-03-26T00:14:29.287Z,39.15
2023-03-26T00:16:57.679Z,38.99
2023-03-26T00:19:27.976Z,38.81
2023-03-26T00:21:57.807Z,39.10
2023-03-26T00:24:30.534Z,39.33
2023-03-26T00:26:59.761Z,38.83
2023-03-26T00:29:28.829Z,38.82
2023-03-26T00:31:57.027Z,38.95
2023-03-26T00:34:26.405Z,38.79
2023-03-26T00:36:56.038Z,38.67
2023-03-26T00:39:24.583Z,39.03
2023-03-26T00:41:54.698Z,39.25
2023-03-26T00:44:23.158Z,39.37
2023-03-26T00:46:51.326Z,38.95
2023-03-26T00:49:19.484Z,39.30
2023-03-26T00:51:47.621Z,38.98
2023-03-26T00:54:17.449Z,38.63
2023-03-26T00:56:45.691Z,39.20
2023-03-26T00:59:13.844Z,38.58
2023-03-26T01:01:42.334Z,39.38
2023-03-26T01:04:31.407Z,38.67
2023-03-26T01:07:02.865Z,38.92
2023-03-26T01:09:37.795Z,39.15
2023-03-26T01:12:07.954Z,38.55
2023-03-26T01:14:36.206Z,39.13
2023-03-26T01:17:06.094Z,38.68
2023-03-26T01:19:38.537Z,39.30
2023-03-26T01:22:09.693Z,38.67
2023-03-26T01:24:39.440Z,39.15
2023-03-26T01:27:20.232Z,39.07
2023-03-26T01:29:52.979Z,38.52
2023-03-26T01:32:29.176Z,38.59
2023-03-26T01:35:04.758Z,38.76
2023-03-26T01:37:36.968Z,39.13
2023-03-26T01:40:07.908Z,38.65
2023-03-26T01:42:37.588Z,38.78
2023-03-26T01:45:09.378Z,38.79
2023-03-26T01:47:38.552Z,39.09
2023-03-26T01:50:08.977Z,38.61
2023-03-26T01:52:37.162Z,38.73
2023-03-26T01:55:11.732Z,38.38
2023-03-26T01:57:47.538Z,38.64
2023-03-26T02:00:22.194Z,39.11
2023-03-26T02:02:59.384Z,38.85
2023-03-26T02:05:30.575Z,38.81
2023-03-26T02:08:01.390Z,38.79
2023-03-26T02:10:31.743Z,38.57
2023-03-26T02:12:59.888Z,38.78
2023-03-26T02:15:28.080Z,38.69
2023-03-26T02:17:56.226Z,39.02
2023-03-26T02:20:24.420Z,38.81
2023-03-26T02:22:52.910Z,38.49
2023-03-26T02:25:21.787Z,38.93
2023-03-26T02:27:56.218Z,38.27
2023-03-26T02:30:26.725Z,38.31
2023-03-26T02:32:59.326Z,38.99
2023-03-26T02:35:33.428Z,38.27
2023-03-26T02:38:03.498Z,38.23
2023-03-26T02:40:31.841Z,38.48
2023-03-26T02:43:01.969Z,38.25
2023-03-26T02:45:32.964Z,38.20
2023-03-26T02:48:20.354Z,38.15
2023-03-26T02:51:00.405Z,38.84
2023-03-26T02:54:03.734Z,38.08
2023-03-26T02:56:50.973Z,38.87
2023-03-26T02:59:43.574Z,38.37
2023-03-26T03:02:38.737Z,38.58
2023-03-26T03:05:26.877Z,38.16
2023-03-26T03:08:13.645Z,38.71
2023-03-26T03:10:59.252Z,38.37
2023-03-26T03:13:47.775Z,38.55
2023-03-26T03:16:24.166Z,38.24
2023-03-26T03:18:57.770Z,38.73
2023-03-26T03:21:35.115Z,38.45
2023-03-26T03:24:03.371Z,38.33
2023-03-26T03:26:36.622Z,38.12
2023-03-26T03:29:18.483Z,38.30
2023-03-26T03:31:48.139Z,38.61
2023-03-26T03:34:31.123Z,38.18
2023-03-26T03:36:59.555Z,38.13
2023-03-26T03:39:37.031Z,38.34
2023-03-26T03:42:05.546Z,38.20
2023-03-26T03:44:34.183Z,38.49
2023-03-26T03:47:07.121Z,38.08
2023-03-26T03:49:37.785Z,37.98
2023-03-26T03:52:06.888Z,38.01
2023-03-26T03:54:40.859Z,38.49
2023-03-26T03:57:22.172Z,38.72
2023-03-26T03:59:59.113Z,39.49
2023-03-26T04:02:35.044Z,39.00
2023-03-26T04:05:07.418Z,39.35
2023-03-26T04:07:36.831Z,39.19
2023-03-26T04:10:09.147Z,39.22
2023-03-26T04:12:56.162Z,39.03
2023-03-26T04:15:40.538Z,39.29
2023-03-26T04:18:11.907Z,39.70
2023-03-26T04:20:46.642Z,39.75
2023-03-26T04:23:21.152Z,39.50
2023-03-26T04:25:54.156Z,39.55
2023-03-26T04:28:30.543Z,39.43
2023-03-26T04:31:24.559Z,39.01
2023-03-26T04:33:55.945Z,39.27
2023-03-26T04:36:27.165Z,39.71
2023-03-26T04:38:55.751Z,38.96
2023-03-26T04:41:32.595Z,39.11
2023-03-26T04:44:07.244Z,38.96
2023-03-26T04:46:55.678Z,38.85
2023-03-26T04:49:32.806Z,38.63
2023-03-26T04:52:01.062Z,38.78
2023-03-26T04:54:47.393Z,39.20
2023-03-26T04:57:20.660Z,38.81
2023-03-26T05:00:18.764Z,38.52
2023-03-26T05:02:53.564Z,39.21
2023-03-26T05:05:23.211Z,38.63
2023-03-26T05:07:51.973Z,38.70
2023-03-26T05:10:21.973Z,38.59
2023-03-26T05:12:54.476Z,38.76
2023-03-26T05:15:32.477Z,39.17
2023-03-26T05:18:03.710Z,39.33
2023-03-26T05:20:40.799Z,39.35
2023-03-26T05:23:10.975Z,38.72
2023-03-26T05:25:54.612Z,39.12
2023-03-26T05:28:26.855Z,38.61
2023-03-26T05:31:02.698Z,38.78
2023-03-26T05:33:35.717Z,39.44
2023-03-26T05:36:13.394Z,39.31
2023-03-26T05:38:47.287Z,39.52
2023-03-26T05:41:19.535Z,39.81
2023-03-26T05:43:49.150Z,39.96
2023-03-26T05:46:24.708Z,39.78
2023-03-26T05:48:54.004Z,39.49
2023-03-26T05:51:24.610Z,40.12
2023-03-26T05:54:02.644Z,39.48
2023-03-26T05:56:30.867Z,38.80
2023-03-26T05:59:15.486Z,37.10
2023-03-26T06:02:10.152Z,35.38
2023-03-26T06:05:13.593Z,35.85
2023-03-26T06:08:02.725Z,35.58
2023-03-26T06:10:39.049Z,35.33
2023-03-26T06:13:07.321Z,35.87
2023-03-26T06:15:38.883Z,35.38
2023-03-26T06:18:27.371Z,35.94
2023-03-26T06:21:22.784Z,35.58
2023-03-26T06:24:12.520Z,35.62
2023-03-26T06:26:59.081Z,36.25
2023-03-26T06:29:53.537Z,35.57
2023-03-26T06:32:34.794Z,34.89
2023-03-26T06:35:11.320Z,35.42
2023-03-26T06:37:39.667Z,35.92
2023-03-26T06:40:12.379Z,35.76
2023-03-26T06:43:08.576Z,35.78
2023-03-26T06:45:57.141Z,36.05
2023-03-26T06:48:45.552Z,36.05
2023-03-26T06:51:32.032Z,36.26
2023-03-26T06:54:18.981Z,35.79
2023-03-26T06:57:08.238Z,36.36
2023-03-26T06:59:39.226Z,35.96
2023-03-26T07:02:26.639Z,36.29
2023-03-26T07:05:13.903Z,36.41
2023-03-26T07:08:00.711Z,36.81
2023-03-26T07:11:04.189Z,36.83
2023-03-26T07:13:56.325Z,36.77
2023-03-26T07:16:50.959Z,36.36
2023-03-26T07:19:39.436Z,36.70
2023-03-26T07:22:08.151Z,36.34
2023-03-26T07:25:06.426Z,36.85
2023-03-26T07:28:05.833Z,36.67
2023-03-26T07:31:07.517Z,37.25
2023-03-26T07:33:58.748Z,36.56
2023-03-26T07:36:47.390Z,36.63
2023-03-26T07:39:40.800Z,37.07
2023-03-26T07:42:39.198Z,36.80
2023-03-26T07:45:27.275Z,36.64
2023-03-26T07:48:20.173Z,36.57
2023-03-26T07:51:09.748Z,36.56
2023-03-26T07:54:11.078Z,36.67
2023-03-26T07:57:00.828Z,37.20
2023-03-26T07:59:54.131Z,36.57
2023-03-26T08:02:56.477Z,36.64
2023-03-26T08:05:48.922Z,37.09
2023-03-26T08:08:28.635Z,37.15
2023-03-26T08:11:29.998Z,37.22
2023-03-26T08:14:14.790Z,36.44
2023-03-26T08:16:44.596Z,36.88
2023-03-26T08:19:22.514Z,37.47
2023-03-26T08:21:53.617Z,37.36
2023-03-26T08:24:23.941Z,37.03
2023-03-26T08:26:55.250Z,37.42
2023-03-26T08:29:28.105Z,36.99
2023-03-26T08:31:57.563Z,37.18
2023-03-26T08:34:25.800Z,37.18
2023-03-26T08:36:55.761Z,37.24
2023-03-26T08:39:24.201Z,37.29
2023-03-26T08:42:29.705Z,37.51
2023-03-26T08:45:26.302Z,37.04
2023-03-26T08:48:20.246Z,37.38
2023-03-26T08:51:13.987Z,37.17
2023-03-26T08:54:07.820Z,37.35
2023-03-26T08:56:40.891Z,36.91
2023-03-26T08:59:50.196Z,37.41
2023-03-26T09:02:32.303Z,37.32
2023-03-26T09:05:37.293Z,37.08
2023-03-26T09:08:56.231Z,37.31
2023-03-26T09:12:11.616Z,37.72
2023-03-26T09:15:07.230Z,37.36
2023-03-26T09:17:57.304Z,36.92
2023-03-26T09:20:58.446Z,37.59
2023-03-26T09:23:42.953Z,37.56
2023-03-26T09:26:27.936Z,37.36
2023-03-26T09:29:47.471Z,37.06
2023-03-26T09:32:51.132Z,37.48
2023-03-26T09:35:49.095Z,36.94
2023-03-26T09:38:23.865Z,37.64
2023-03-26T09:40:54.393Z,37.64
2023-03-26T09:43:37.914Z,37.10
2023-03-26T09:46:12.387Z,37.50
2023-03-26T09:48:57.310Z,37.68
2023-03-26T09:51:44.061Z,37.94
2023-03-26T09:54:20.422Z,37.61
2023-03-26T09:56:52.661Z,38.48
2023-03-26T09:59:48.236Z,38.32
2023-03-26T10:02:23.616Z,38.31
2023-03-26T10:05:35.429Z,38.78
2023-03-26T10:08:14.564Z,38.28
2023-03-26T10:10:44.496Z,38.85
2023-03-26T10:13:18.736Z,39.10
2023-03-26T10:15:58.643Z,38.71
2023-03-26T10:18:32.149Z,38.89
2023-03-26T10:21:03.654Z,39.42
2023-03-26T10:23:54.176Z,39.84
2023-03-26T10:26:33.654Z,40.34
2023-03-26T10:29:10.134Z,40.47
2023-03-26T10:31:42.118Z,40.04
2023-03-26T10:34:28.747Z,40.23
2023-03-26T10:37:05.517Z,40.21
2023-03-26T10:40:08.347Z,40.51
2023-03-26T10:42:55.073Z,40.96
2023-03-26T10:45:29.500Z,41.62
2023-03-26T10:48:27.195Z,42.47
2023-03-26T10:51:13.036Z,42.88
2023-03-26T10:53:44.026Z,42.68
2023-03-26T10:56:16.247Z,42.52
2023-03-26T10:58:48.607Z,43.08
2023-03-26T11:01:23.869Z,42.80
2023-03-26T11:03:52.934Z,43.25
2023-03-26T11:06:31.643Z,43.04
2023-03-26T11:09:05.085Z,43.25
2023-03-26T11:11:36.194Z,43.72
2023-03-26T11:14:07.113Z,43.67
2023-03-26T11:16:42.000Z,43.51
2023-03-26T11:19:13.179Z,43.65
2023-03-26T11:21:43.840Z,43.72
2023-03-26T11:24:31.459Z,43.51
2023-03-26T11:27:14.854Z,43.62
2023-03-26T11:29:47.571Z,43.10
2023-03-26T11:32:17.928Z,43.66
2023-03-26T11:34:49.991Z,43.34
2023-03-26T11:37:20.205Z,43.33
2023-03-26T11:39:53.472Z,43.36
2023-03-26T11:42:24.643Z,43.23
2023-03-26T11:44:54.737Z,43.48
2023-03-26T11:47:24.958Z,43.65
2023-03-26T11:49:53.256Z,43.91
2023-03-26T11:52:21.722Z,43.47
2023-03-26T11:54:51.264Z,43.51
2023-03-26T11:57:21.207Z,43.75
2023-03-26T11:59:57.629Z,43.61
2023-03-26T12:02:29.901Z,44.10
2023-03-26T12:05:12.708Z,44.32
2023-03-26T12:07:46.591Z,43.98
2023-03-26T12:10:31.433Z,44.56
2023-03-26T12:13:00.898Z,44.17
2023-03-26T12:15:29.126Z,44.13
2023-03-26T12:17:58.305Z,44.28
2023-03-26T12:20:38.714Z,43.97
2023-03-26T12:23:08.251Z,43.92
2023-03-26T12:25:38.906Z,44.22
2023-03-26T12:28:18.081Z,43.86
2023-03-26T12:30:54.400Z,44.27
2023-03-26T12:33:26.191Z,44.23
2023-03-26T12:35:54.568Z,44.46
2023-03-26T12:38:29.029Z,44.55
2023-03-26T12:44:42.225Z,44.23
2023-03-26T12:44:49.801Z,44.02
2023-03-26T12:47:57.631Z,44.39
2023-03-26T12:49:36.577Z,43.97
2023-03-26T12:52:11.388Z,44.70
2023-03-26T12:54:44.885Z,44.46
2023-03-26T12:57:20.511Z,44.35
2023-03-26T12:59:54.677Z,44.54
2023-03-26T13:02:33.293Z,44.47
2023-03-26T13:05:07.480Z,44.01
2023-03-26T13:07:44.734Z,44.05
2023-03-26T13:10:30.630Z,43.62
2023-03-26T13:13:06.284Z,43.71
2023-03-26T13:15:34.540Z,43.88
2023-03-26T13:18:09.019Z,42.98
2023-03-26T13:20:49.169Z,42.86
2023-03-26T13:23:22.459Z,43.50
2023-03-26T13:25:54.189Z,43.07
2023-03-26T13:28:28.368Z,43.16
2023-03-26T13:31:01.866Z,42.83
2023-03-26T13:33:49.972Z,42.96
2023-03-26T13:36:24.349Z,42.98
2023-03-26T13:39:14.576Z,42.80
2023-03-26T13:42:04.172Z,42.80
2023-03-26T13:44:39.027Z,43.14
2023-03-26T13:47:09.790Z,43.25
2023-03-26T13:49:39.845Z,42.72
2023-03-26T13:52:09.161Z,42.33
2023-03-26T13:54:40.194Z,42.91
2023-03-26T13:57:10.636Z,42.13
2023-03-26T13:59:41.790Z,42.66
2023-03-26T14:02:11.988Z,42.85
2023-03-26T14:04:41.171Z,42.69
2023-03-26T14:07:10.849Z,42.96
2023-03-26T14:09:41.686Z,42.65
2023-03-26T14:12:35.057Z,42.44
2023-03-26T14:15:05.448Z,42.82
2023-03-26T14:17:38.547Z,42.56
2023-03-26T14:20:51.563Z,42.94
2023-03-26T14:23:40.285Z,42.79
2023-03-26T14:26:14.739Z,43.11
2023-03-26T14:28:57.832Z,43.27
2023-03-26T14:34:04.835Z,43.06
2023-03-26T14:36:49.728Z,42.66
2023-03-26T14:39:28.111Z,43.38
2023-03-26T14:41:58.442Z,43.20
2023-03-26T14:44:52.663Z,43.57
2023-03-26T14:47:22.999Z,43.04
2023-03-26T14:50:26.729Z,42.84
2023-03-26T14:53:01.269Z,43.24
2023-03-26T14:55:43.265Z,43.34
2023-03-26T14:58:28.104Z,43.18
2023-03-26T15:01:24.376Z,43.62
2023-03-26T15:04:23.200Z,43.75
2023-03-26T15:07:30.232Z,43.95
2023-03-26T15:10:22.570Z,43.51
2023-03-26T15:13:04.116Z,43.81
2023-03-26T15:16:11.082Z,43.33
2023-03-26T15:19:17.866Z,43.68
2023-03-26T15:22:04.392Z,43.47
2023-03-26T15:24:49.294Z,44.07
2023-03-26T15:27:39.744Z,44.22
2023-03-26T15:30:43.643Z,44.47
2023-03-26T15:33:56.949Z,43.93
2023-03-26T15:36:56.542Z,44.23
2023-03-26T15:39:58.748Z,44.48
2023-03-26T15:42:30.569Z,44.56
2023-03-26T15:45:01.802Z,44.14
2023-03-26T15:47:37.897Z,44.70
2023-03-26T15:50:17.019Z,44.22
2023-03-26T15:52:48.900Z,44.61
2023-03-26T15:55:27.772Z,44.41
2023-03-26T15:57:58.056Z,44.33
2023-03-26T16:00:29.112Z,44.85
2023-03-26T16:03:12.067Z,44.73
2023-03-26T16:05:46.393Z,44.48
2023-03-26T16:08:20.090Z,44.59
2023-03-26T16:10:52.213Z,44.49
2023-03-26T16:13:35.113Z,44.36
2023-03-26T16:16:38.615Z,44.80
2023-03-26T16:19:41.074Z,44.81
2023-03-26T16:22:12.450Z,44.84
2023-03-26T16:24:41.053Z,44.90
2023-03-26T16:27:29.256Z,45.09
2023-03-26T16:30:20.203Z,44.90
2023-03-26T16:32:49.967Z,45.23
2023-03-26T16:35:39.761Z,45.01
2023-03-26T16:38:11.763Z,45.20
2023-03-26T16:40:51.840Z,44.96
2023-03-26T16:43:36.432Z,45.21
2023-03-26T16:46:07.062Z,44.80
2023-03-26T16:48:38.696Z,45.61
2023-03-26T16:51:11.425Z,45.15
2023-03-26T16:53:42.755Z,45.15
2023-03-26T16:56:15.997Z,45.18
2023-03-26T16:58:54.980Z,45.67
2023-03-26T17:01:30.364Z,45.06
2023-03-26T17:04:00.761Z,45.43
2023-03-26T17:06:47.108Z,45.35
2023-03-26T17:09:21.256Z,45.22
2023-03-26T17:11:56.550Z,45.69
2023-03-26T17:14:32.784Z,45.85
2023-03-26T17:17:13.494Z,45.35
2023-03-26T17:19:45.962Z,45.31
2023-03-26T17:22:16.654Z,45.04
2023-03-26T17:24:47.006Z,45.32
2023-03-26T17:27:43.611Z,44.96
2023-03-26T17:30:43.214Z,45.32
2023-03-26T17:33:14.557Z,45.03
2023-03-26T17:35:43.813Z,45.42
2023-03-26T17:38:45.550Z,45.51
2023-03-26T17:41:15.399Z,45.35
2023-03-26T17:43:45.159Z,45.06
2023-03-26T17:46:26.849Z,45.36
2023-03-26T17:48:59.560Z,45.34
2023-03-26T17:51:38.820Z,45.44
2023-03-26T17:54:09.234Z,45.62
2023-03-26T17:56:38.789Z,45.72
2023-03-26T17:59:11.883Z,45.40
2023-03-26T18:01:44.238Z,45.42
2023-03-26T18:04:15.080Z,46.64
2023-03-26T18:07:02.243Z,46.84
2023-03-26T18:09:41.840Z,46.90
2023-03-26T18:12:34.963Z,47.23
2023-03-26T18:15:15.131Z,46.88
2023-03-26T18:17:45.941Z,47.09
2023-03-26T18:20:21.636Z,47.38
2023-03-26T18:22:50.123Z,47.27
2023-03-26T18:25:25.146Z,47.11
2023-03-26T18:27:53.346Z,47.06
2023-03-26T18:30:22.669Z,47.39
2023-03-26T18:33:00.171Z,47.48
2023-03-26T18:35:29.155Z,46.43
2023-03-26T18:38:00.350Z,46.99
2023-03-26T18:40:32.216Z,46.46
2023-03-26T18:43:00.944Z,47.18
2023-03-26T18:45:29.969Z,46.56
2023-03-26T18:48:01.193Z,46.51
2023-03-26T18:50:30.017Z,46.52
2023-03-26T18:52:59.997Z,46.21
2023-03-26T18:55:29.427Z,46.76
2023-03-26T18:57:57.666Z,46.29
2023-03-26T19:00:28.504Z,46.17
2023-03-26T19:03:03.387Z,45.96
2023-03-26T19:05:32.323Z,45.93
2023-03-26T19:08:03.353Z,45.58
2023-03-26T19:10:32.224Z,46.67
2023-03-26T19:13:01.482Z,46.64
2023-03-26T19:15:30.136Z,46.64
2023-03-26T19:18:07.094Z,46.04
2023-03-26T19:20:40.874Z,46.42
2023-03-26T19:23:10.385Z,46.61
2023-03-26T19:25:41.262Z,46.35
2023-03-26T19:28:15.647Z,46.32
2023-03-26T19:30:44.022Z,46.43
2023-03-26T19:33:18.642Z,46.70
2023-03-26T19:35:47.856Z,46.37
2023-03-26T19:38:27.169Z,46.46
2023-03-26T19:40:56.021Z,46.74
2023-03-26T19:43:24.329Z,45.41
2023-03-26T19:48:46.292Z,45.43
2023-03-26T19:51:18.408Z,44.57
2023-03-26T19:51:20.244Z,45.78
2023-03-26T19:53:54.205Z,45.20
2023-03-26T19:56:23.045Z,45.80
2023-03-26T19:58:51.311Z,45.25
2023-03-26T20:01:21.060Z,45.33
2023-03-26T20:03:51.658Z,45.43
2023-03-26T20:06:23.695Z,45.59
2023-03-26T20:08:56.389Z,45.87
2023-03-26T20:11:25.377Z,45.33
2023-03-26T20:13:53.527Z,45.46
2023-03-26T20:16:23.739Z,45.57
2023-03-26T20:18:53.808Z,45.27
2023-03-26T20:21:21.937Z,45.46
2023-03-26T20:23:53.549Z,45.51
2023-03-26T20:26:22.156Z,45.29
2023-03-26T20:28:53.414Z,45.42
2023-03-26T20:31:23.072Z,45.31
2023-03-26T20:33:53.038Z,45.11
2023-03-26T20:36:34.257Z,45.52
2023-03-26T20:39:05.758Z,45.92
2023-03-26T20:41:34.923Z,45.46
2023-03-26T20:44:04.882Z,45.91
2023-03-26T20:46:33.333Z,45.50
2023-03-26T20:49:01.530Z,45.68
2023-03-26T20:51:31.132Z,45.94
2023-03-26T20:54:00.447Z,45.96
2023-03-26T20:56:28.998Z,45.21
2023-03-26T20:59:09.628Z,45.73
2023-03-26T21:01:39.017Z,45.28
2023-03-26T21:04:07.184Z,45.58
2023-03-26T21:06:37.164Z,45.64
2023-03-26T21:09:05.913Z,45.42
2023-03-26T21:11:40.981Z,44.88
2023-03-26T21:14:10.838Z,45.03
2023-03-26T21:16:39.623Z,45.13
2023-03-26T21:19:09.207Z,44.66
2023-03-26T21:21:47.657Z,44.77
2023-03-26T21:24:21.471Z,45.15
2023-03-26T21:26:51.108Z,45.34
2023-03-26T21:29:19.827Z,44.87
2023-03-26T21:31:48.804Z,45.01
2023-03-26T21:34:17.424Z,44.77
2023-03-26T21:36:47.808Z,44.52
2023-03-26T21:39:16.548Z,44.37
2023-03-26T21:41:46.719Z,44.44
2023-03-26T21:44:15.381Z,44.73
2023-03-26T21:46:44.289Z,44.62
2023-03-26T21:49:13.118Z,44.32
2023-03-26T21:51:41.703Z,44.44
2023-03-26T21:54:18.833Z,44.80
2023-03-26T21:56:49.920Z,44.70
2023-03-26T21:59:21.962Z,44.28
2023-03-26T22:01:53.010Z,44.22
2023-03-26T22:04:23.944Z,44.23
2023-03-26T22:06:54.666Z,44.29
2023-03-26T22:09:35.562Z,43.94
2023-03-26T22:12:04.365Z,44.13
2023-03-26T22:14:33.643Z,44.03
2023-03-26T22:17:01.831Z,44.17
2023-03-26T22:19:30.499Z,44.03
2023-03-26T22:22:00.230Z,43.70
2023-03-26T22:24:29.807Z,43.64
2023-03-26T22:26:57.943Z,43.79
2023-03-26T22:29:26.092Z,43.91
2023-03-26T22:31:54.219Z,43.85
2023-03-26T22:34:25.081Z,43.91
2023-03-26T22:36:53.563Z,44.01
2023-03-26T22:39:21.838Z,43.49
2023-03-26T22:41:51.386Z,43.97
2023-03-26T22:44:20.528Z,43.73
2023-03-26T22:46:51.470Z,43.69
2023-03-26T22:49:19.978Z,43.78
2023-03-26T22:51:48.083Z,43.51
2023-03-26T22:54:16.187Z,43.49
2023-03-26T22:56:45.732Z,43.43
2023-03-26T22:59:15.410Z,43.68
2023-03-26T23:01:44.372Z,43.67
2023-03-26T23:04:12.997Z,43.42
2023-03-26T23:06:59.924Z,43.63
2023-03-26T23:09:28.055Z,43.01
2023-03-26T23:11:56.484Z,42.96
2023-03-26T23:14:26.148Z,43.15
2023-03-26T23:16:54.979Z,43.34
2023-03-26T23:19:23.090Z,43.42
2023-03-26T23:21:51.609Z,42.87
2023-03-26T23:24:19.900Z,43.32
2023-03-26T23:26:51.127Z,43.33
2023-03-26T23:29:19.692Z,43.14
2023-03-26T23:31:49.334Z,43.36
2023-03-26T23:34:18.616Z,43.15
2023-03-26T23:36:47.056Z,42.83
2023-03-26T23:39:15.987Z,42.67
2023-03-26T23:41:44.076Z,42.82
2023-03-26T23:44:14.515Z,42.68
2023-03-26T23:46:42.765Z,42.98
2023-03-26T23:49:12.336Z,42.81
2023-03-26T23:51:40.386Z,42.80
2023-03-26T23:54:08.924Z,42.83
2023-03-26T23:56:37.056Z,42.72
2023-03-26T23:59:06.189Z,42.84
